createdAt,value
2023-01-04T00:01:07.683Z,72.53
2023-01-04T00:03:34.961Z,83.32
2023-01-04T00:06:04.030Z,80.03
2023-01-04T00:08:31.292Z,68.88
2023-01-04T00:11:06.689Z,77.07
2023-01-04T00:13:33.955Z,78.43
2023-01-04T00:16:09.505Z,69.60
2023-01-04T00:18:37.222Z,65.10
2023-01-04T00:21:08.040Z,75.32
2023-01-04T00:23:34.858Z,75.38
2023-01-04T00:26:01.638Z,69.68
2023-01-04T00:28:28.426Z,72.18
2023-01-04T00:30:55.194Z,62.92
2023-01-04T00:33:21.944Z,63.22
2023-01-04T00:35:48.695Z,64.45
2023-01-04T00:38:15.430Z,76.30
2023-01-04T00:40:42.189Z,74.40
2023-01-04T00:43:08.923Z,58.28
2023-01-04T00:45:35.680Z,64.28
2023-01-04T00:48:02.442Z,58.55
2023-01-04T00:50:29.214Z,56.35
2023-01-04T00:52:55.964Z,72.97
2023-01-04T00:55:22.708Z,58.50
2023-01-04T00:57:49.472Z,59.50
2023-01-04T01:00:16.499Z,56.70
2023-01-04T01:02:43.521Z,52.72
2023-01-04T01:05:10.514Z,62.53
2023-01-04T01:07:37.295Z,58.53
2023-01-04T01:10:04.644Z,64.30
2023-01-04T01:12:31.517Z,63.35
2023-01-04T01:15:00.591Z,57.05
2023-01-04T01:17:27.725Z,67.20
2023-01-04T01:19:54.599Z,70.80
2023-01-04T01:22:21.416Z,60.05
2023-01-04T01:24:48.226Z,66.80
2023-01-04T01:27:14.988Z,66.43
2023-01-04T01:29:41.751Z,61.78
2023-01-04T01:32:08.523Z,58.47
2023-01-04T01:34:35.298Z,59.72
2023-01-04T01:37:02.826Z,62.53
2023-01-04T01:39:29.657Z,67.47
2023-01-04T01:41:56.504Z,67.30
2023-01-04T01:44:42.110Z,61.08
2023-01-04T01:47:17.727Z,64.88
2023-01-04T01:49:47.629Z,53.85
2023-01-04T01:52:35.196Z,59.33
2023-01-04T01:55:06.996Z,56.17
2023-01-04T02:00:07.279Z,53.58
2023-01-04T02:02:34.693Z,57.78
2023-01-04T02:05:03.040Z,65.75
2023-01-04T02:07:29.967Z,67.47
2023-01-04T02:09:58.313Z,60.65
2023-01-04T02:12:25.823Z,61.65
2023-01-04T02:14:52.755Z,60.17
2023-01-04T02:17:39.613Z,63.75
2023-01-04T02:20:12.128Z,70.10
2023-01-04T02:22:41.715Z,71.22
2023-01-04T02:25:21.743Z,63.13
2023-01-04T02:27:53.730Z,62.78
2023-01-04T02:30:29.452Z,58.15
2023-01-04T02:32:59.516Z,61.50
2023-01-04T02:35:41.298Z,67.28
2023-01-04T02:38:08.009Z,62.15
2023-01-04T02:40:51.398Z,53.67
2023-01-04T02:43:47.716Z,47.75
2023-01-04T02:46:21.916Z,61.75
2023-01-04T02:49:08.008Z,56.33
2023-01-04T02:51:36.684Z,47.50
2023-01-04T02:54:27.307Z,51.63
2023-01-04T02:57:25.561Z,51.38
2023-01-04T03:00:16.019Z,51.05
2023-01-04T03:03:26.629Z,56.25
2023-01-04T03:06:18.081Z,52.28
2023-01-04T03:09:06.636Z,53.53
2023-01-04T03:12:02.578Z,48.38
2023-01-04T03:14:35.820Z,41.33
2023-01-04T03:17:07.772Z,49.22
2023-01-04T03:19:51.739Z,49.90
2023-01-04T03:22:51.586Z,50.83
2023-01-04T03:25:40.044Z,52.33
2023-01-04T03:28:26.874Z,56.10
2023-01-04T03:31:48.178Z,56.08
2023-01-04T03:34:34.083Z,51.05
2023-01-04T03:37:16.761Z,48.17
2023-01-04T03:40:18.903Z,46.10
2023-01-04T03:43:11.028Z,42.92
2023-01-04T03:48:39.040Z,40.08
2023-01-04T03:51:37.200Z,51.28
2023-01-04T03:54:15.738Z,47.50
2023-01-04T03:56:44.870Z,43.15
2023-01-04T03:59:12.956Z,44.03
2023-01-04T04:01:42.026Z,39.85
2023-01-04T04:04:28.026Z,43.30
2023-01-04T04:07:13.493Z,41.75
2023-01-04T04:09:40.259Z,38.53
2023-01-04T04:12:07.169Z,42.53
2023-01-04T04:14:34.186Z,40.95
2023-01-04T04:17:01.205Z,44.05
2023-01-04T04:19:28.019Z,41.42
2023-01-04T04:21:54.771Z,42.92
2023-01-04T04:24:24.639Z,39.03
2023-01-04T04:26:54.460Z,38.53
2023-01-04T04:29:21.988Z,44.78
2023-01-04T04:31:49.040Z,42.30
2023-01-04T04:34:15.977Z,43.58
2023-01-04T04:36:42.737Z,54.03
2023-01-04T04:39:09.577Z,51.53
2023-01-04T04:41:39.223Z,56.28
2023-01-04T04:44:14.694Z,48.85
2023-01-04T04:46:42.731Z,50.33
2023-01-04T04:49:10.463Z,48.70
2023-01-04T04:51:37.931Z,42.22
2023-01-04T04:54:07.590Z,47.58
2023-01-04T04:56:36.922Z,47.38
2023-01-04T04:59:05.392Z,44.85
2023-01-04T05:01:32.725Z,48.05
2023-01-04T05:03:59.665Z,46.05
2023-01-04T05:06:27.845Z,46.53
2023-01-04T05:08:54.779Z,44.85
2023-01-04T05:11:41.552Z,50.67
2023-01-04T05:14:09.307Z,44.03
2023-01-04T05:16:36.488Z,55.42
2023-01-04T05:19:03.450Z,52.03
2023-01-04T05:21:30.218Z,53.40
2023-01-04T05:23:57.662Z,48.38
2023-01-04T05:26:24.447Z,51.53
2023-01-04T05:28:53.964Z,55.35
2023-01-04T05:31:21.627Z,52.53
2023-01-04T05:33:48.501Z,55.30
2023-01-04T05:36:15.332Z,46.95
2023-01-04T05:38:42.088Z,49.50
2023-01-04T05:41:28.911Z,48.53
2023-01-04T05:43:55.780Z,50.75
2023-01-04T05:46:22.949Z,52.67
2023-01-04T05:48:49.756Z,47.83
2023-01-04T05:51:16.543Z,59.47
2023-01-04T05:53:43.332Z,51.50
2023-01-04T05:56:10.113Z,49.97
2023-01-04T05:58:36.884Z,51.95
2023-01-04T06:01:03.709Z,49.97
2023-01-04T06:03:30.621Z,51.42
2023-01-04T06:05:57.488Z,48.80
2023-01-04T06:08:24.285Z,51.80
2023-01-04T06:10:54.815Z,53.33
2023-01-04T06:13:21.727Z,53.88
2023-01-04T06:15:48.491Z,50.63
2023-01-04T06:18:15.257Z,57.17
2023-01-04T06:20:43.742Z,50.30
2023-01-04T06:23:10.970Z,46.50
2023-01-04T06:25:38.123Z,52.75
2023-01-04T06:28:04.941Z,56.10
2023-01-04T06:30:32.043Z,51.15
2023-01-04T06:32:58.934Z,51.33
2023-01-04T06:35:25.751Z,51.45
2023-01-04T06:37:52.551Z,45.58
2023-01-04T06:40:19.332Z,51.95
2023-01-04T06:42:46.152Z,42.05
2023-01-04T06:45:14.964Z,46.65
2023-01-04T06:47:42.324Z,49.08
2023-01-04T06:50:10.324Z,45.85
2023-01-04T06:52:37.157Z,45.00
2023-01-04T06:55:04.758Z,50.95
2023-01-04T06:57:32.286Z,51.63
2023-01-04T06:59:59.036Z,45.75
2023-01-04T07:02:26.912Z,43.05
2023-01-04T07:04:53.807Z,45.92
2023-01-04T07:07:20.763Z,46.40
2023-01-04T07:09:47.600Z,41.88
2023-01-04T07:12:14.385Z,40.35
2023-01-04T07:14:41.158Z,52.33
2023-01-04T07:17:08.004Z,45.63
2023-01-04T07:19:34.762Z,46.42
2023-01-04T07:22:02.028Z,42.55
2023-01-04T07:24:30.538Z,53.45
2023-01-04T07:26:59.902Z,50.08
2023-01-04T07:29:27.061Z,54.88
2023-01-04T07:31:54.340Z,49.28
2023-01-04T07:34:23.497Z,49.13
2023-01-04T07:36:50.731Z,45.85
2023-01-04T07:39:18.734Z,53.15
2023-01-04T07:41:46.127Z,47.35
2023-01-04T07:44:13.400Z,53.92
2023-01-04T07:46:40.336Z,51.92
2023-01-04T07:49:13.041Z,57.50
2023-01-04T07:51:43.268Z,47.75
2023-01-04T07:54:11.293Z,53.22
2023-01-04T07:56:38.126Z,44.60
2023-01-04T07:59:09.112Z,51.42
2023-01-04T08:01:38.559Z,47.58
2023-01-04T08:04:06.750Z,46.58
2023-01-04T08:06:36.374Z,47.78
2023-01-04T08:09:04.121Z,51.40
2023-01-04T08:11:31.444Z,56.22
2023-01-04T08:13:58.454Z,55.42
2023-01-04T08:16:28.220Z,64.03
2023-01-04T08:18:56.110Z,57.10
2023-01-04T08:21:23.411Z,64.30
2023-01-04T08:23:50.374Z,66.28
2023-01-04T08:26:17.495Z,72.75
2023-01-04T08:28:46.059Z,64.50
2023-01-04T08:31:33.560Z,54.00
2023-01-04T08:34:04.002Z,49.38
2023-01-04T08:36:32.762Z,52.90
2023-01-04T08:39:02.505Z,49.80
2023-01-04T08:41:57.453Z,55.47
2023-01-04T08:44:21.718Z,54.70
2023-01-04T08:46:49.665Z,63.35
2023-01-04T08:49:17.231Z,62.55
2023-01-04T08:51:45.037Z,62.60
2023-01-04T08:54:32.670Z,55.75
2023-01-04T08:56:59.694Z,55.65
2023-01-04T08:59:26.813Z,53.03
2023-01-04T09:01:53.887Z,63.42
2023-01-04T09:04:21.304Z,58.88
2023-01-04T09:06:48.154Z,58.40
2023-01-04T09:09:15.764Z,60.83
2023-01-04T09:11:42.682Z,68.15
2023-01-04T09:14:10.633Z,58.25
2023-01-04T09:16:38.650Z,66.22
2023-01-04T09:19:06.482Z,67.28
2023-01-04T09:21:33.368Z,64.30
2023-01-04T09:24:00.461Z,70.97
2023-01-04T09:26:27.332Z,63.05
2023-01-04T09:29:20.652Z,61.72
2023-01-04T09:31:47.598Z,52.38
2023-01-04T09:34:16.641Z,47.17
2023-01-04T09:36:48.852Z,52.95
2023-01-04T09:39:22.238Z,45.95
2023-01-04T09:42:00.387Z,49.22
2023-01-04T09:47:29.707Z,50.50
2023-01-04T09:50:23.722Z,59.78
2023-01-04T09:53:18.611Z,48.75
2023-01-04T09:55:50.457Z,49.30
2023-01-04T09:58:31.035Z,50.97
2023-01-04T10:01:00.720Z,75.18
2023-01-04T10:03:35.383Z,58.75
2023-01-04T10:06:03.502Z,54.10
2023-01-04T10:08:31.495Z,57.42
2023-01-04T10:10:58.277Z,51.88
2023-01-04T10:13:55.021Z,41.05
2023-01-04T10:16:44.281Z,43.42
2023-01-04T10:22:46.041Z,42.38
2023-01-04T10:25:32.248Z,35.00
2023-01-04T10:28:14.331Z,45.67
2023-01-04T10:31:39.592Z,35.38
2023-01-04T10:34:18.948Z,35.58
2023-01-04T10:36:48.002Z,31.90
2023-01-04T10:39:22.599Z,31.02
2023-01-04T10:42:21.747Z,31.75
2023-01-04T10:45:09.333Z,26.50
2023-01-04T10:47:55.785Z,24.65
2023-01-04T10:50:38.591Z,24.98
2023-01-04T10:53:16.917Z,20.33
2023-01-04T10:56:34.820Z,25.65
2023-01-04T10:59:21.195Z,22.55
2023-01-04T11:01:59.101Z,17.92
2023-01-04T11:04:54.760Z,13.85
2023-01-04T11:07:52.395Z,16.73
2023-01-04T11:11:15.389Z,17.70
2023-01-04T11:13:42.189Z,16.13
2023-01-04T11:16:09.169Z,19.42
2023-01-04T11:18:39.433Z,20.90
2023-01-04T11:21:12.424Z,15.55
2023-01-04T11:23:39.403Z,17.48
2023-01-04T11:26:20.781Z,16.42
2023-01-04T11:32:03.055Z,15.07
2023-01-04T11:34:47.624Z,13.68
2023-01-04T11:37:28.036Z,13.00
2023-01-04T11:40:18.825Z,15.25
2023-01-04T11:43:01.581Z,19.05
2023-01-04T11:45:28.515Z,16.95
2023-01-04T11:48:00.716Z,14.77
2023-01-04T11:50:37.554Z,19.30
2023-01-04T11:53:21.908Z,13.45
2023-01-04T11:56:34.730Z,12.90
2023-01-04T11:59:27.205Z,13.23
2023-01-04T12:02:58.612Z,15.35
2023-01-04T12:05:30.685Z,17.80
2023-01-04T12:07:59.131Z,13.48
2023-01-04T12:10:27.836Z,13.25
2023-01-04T12:12:56.453Z,12.18
2023-01-04T12:15:42.629Z,17.15
2023-01-04T12:18:19.566Z,15.15
2023-01-04T12:20:46.392Z,12.02
2023-01-04T12:23:14.257Z,14.23
2023-01-04T12:25:51.617Z,11.02
2023-01-04T12:28:39.995Z,13.70
2023-01-04T12:31:19.744Z,11.68
2023-01-04T12:33:56.230Z,14.43
2023-01-04T12:36:38.013Z,11.18
2023-01-04T12:39:16.687Z,13.77
2023-01-04T12:42:00.323Z,14.23
2023-01-04T12:44:39.877Z,14.40
2023-01-04T12:47:37.362Z,10.77
2023-01-04T12:50:14.596Z,11.52
2023-01-04T12:55:36.758Z,11.27
2023-01-04T12:58:42.399Z,10.18
2023-01-04T13:01:28.852Z,11.90
2023-01-04T13:04:21.431Z,11.70
2023-01-04T13:06:48.522Z,11.70
2023-01-04T13:09:24.222Z,11.75
2023-01-04T13:12:20.751Z,12.00
2023-01-04T13:14:50.325Z,9.60
2023-01-04T13:17:21.205Z,10.18
2023-01-04T13:19:49.287Z,13.30
2023-01-04T13:22:28.451Z,11.25
2023-01-04T13:24:58.034Z,14.60
2023-01-04T13:27:26.571Z,19.30
2023-01-04T13:29:53.767Z,15.05
2023-01-04T13:32:28.200Z,8.23
2023-01-04T13:34:56.209Z,8.38
2023-01-04T13:37:27.057Z,10.05
2023-01-04T13:40:26.698Z,8.02
2023-01-04T13:43:15.363Z,12.25
2023-01-04T13:46:06.215Z,11.95
2023-01-04T13:48:39.157Z,11.90
2023-01-04T13:51:15.858Z,9.07
2023-01-04T13:53:52.102Z,8.65
2023-01-04T13:56:24.504Z,15.68
2023-01-04T13:58:51.886Z,13.32
2023-01-04T14:01:29.633Z,12.93
2023-01-04T14:04:03.546Z,11.27
2023-01-04T14:06:33.970Z,11.43
2023-01-04T14:09:10.654Z,11.43
2023-01-04T14:12:08.092Z,12.30
2023-01-04T14:14:50.835Z,10.85
2023-01-04T14:17:29.927Z,11.05
2023-01-04T14:19:58.081Z,13.82
2023-01-04T14:22:24.842Z,11.75
2023-01-04T14:26:07.081Z,10.23
2023-01-04T14:32:20.221Z,10.60
2023-01-04T14:34:47.063Z,9.27
2023-01-04T14:37:44.109Z,15.18
2023-01-04T14:43:59.700Z,9.82
2023-01-04T14:46:28.368Z,12.88
2023-01-04T14:48:55.719Z,10.98
2023-01-04T14:51:51.154Z,9.02
2023-01-04T14:54:24.657Z,11.73
2023-01-04T14:56:54.290Z,10.93
2023-01-04T14:59:25.100Z,11.55
2023-01-04T15:01:56.448Z,18.35
2023-01-04T15:04:23.988Z,19.83
2023-01-04T15:07:00.756Z,11.60
2023-01-04T15:09:28.578Z,10.18
2023-01-04T15:11:55.734Z,10.85
2023-01-04T15:14:22.689Z,15.40
2023-01-04T15:16:49.791Z,16.75
2023-01-04T15:19:16.613Z,19.60
2023-01-04T15:21:43.363Z,19.10
2023-01-04T15:24:10.925Z,19.83
2023-01-04T15:26:40.001Z,29.45
2023-01-04T15:29:08.701Z,17.08
2023-01-04T15:31:39.731Z,18.08
2023-01-04T15:34:07.920Z,21.13
2023-01-04T15:36:38.551Z,18.20
2023-01-04T15:39:05.835Z,18.05
2023-01-04T15:41:51.288Z,14.52
2023-01-04T15:44:18.184Z,16.15
2023-01-04T15:46:45.468Z,14.93
2023-01-04T15:49:17.230Z,12.52
2023-01-04T15:51:45.754Z,16.40
2023-01-04T15:54:13.821Z,15.20
2023-01-04T16:01:11.361Z,12.30
2023-01-04T16:07:36.211Z,12.55
2023-01-04T16:13:47.399Z,13.32
2023-01-04T16:19:56.816Z,14.27
2023-01-04T16:29:52.080Z,13.50
2023-01-04T16:32:27.632Z,11.95
2023-01-04T16:34:54.615Z,14.35
2023-01-04T16:37:21.429Z,13.85
2023-01-04T16:40:05.838Z,15.18
2023-01-04T16:42:33.690Z,13.10
2023-01-04T16:45:00.465Z,15.18
2023-01-04T16:47:27.319Z,14.70
2023-01-04T16:49:54.392Z,15.07
2023-01-04T16:52:21.467Z,15.88
2023-01-04T16:54:49.192Z,14.25
2023-01-04T16:57:16.042Z,12.00
2023-01-04T16:59:42.899Z,14.38
2023-01-04T17:02:13.579Z,14.18
2023-01-04T17:04:40.608Z,15.00
2023-01-04T17:07:07.570Z,30.38
2023-01-04T17:09:34.716Z,19.50
2023-01-04T17:12:44.950Z,15.70
2023-01-04T17:15:07.918Z,15.55
2023-01-04T17:17:37.630Z,13.40
2023-01-04T17:20:06.449Z,12.10
2023-01-04T17:22:34.912Z,17.20
2023-01-04T17:25:02.247Z,14.75
2023-01-04T17:27:29.072Z,13.18
2023-01-04T17:29:55.835Z,15.45
2023-01-04T17:32:22.675Z,14.82
2023-01-04T17:34:50.071Z,14.52
2023-01-04T17:37:16.869Z,16.10
2023-01-04T17:39:44.041Z,17.92
2023-01-04T17:42:10.849Z,15.23
2023-01-04T17:44:37.885Z,15.98
2023-01-04T17:47:04.720Z,23.58
2023-01-04T17:49:32.514Z,21.63
2023-01-04T17:52:00.083Z,16.30
2023-01-04T17:54:27.148Z,23.30
2023-01-04T17:56:54.206Z,21.95
2023-01-04T17:59:21.037Z,17.73
2023-01-04T18:01:47.914Z,18.33
2023-01-04T18:04:14.893Z,19.48
2023-01-04T18:06:41.644Z,18.30
2023-01-04T18:09:09.074Z,18.90
2023-01-04T18:11:36.647Z,23.20
2023-01-04T18:14:07.781Z,18.65
2023-01-04T18:16:56.448Z,19.83
2023-01-04T18:19:25.749Z,21.10
2023-01-04T18:21:52.564Z,22.33
2023-01-04T18:24:36.687Z,30.67
2023-01-04T18:27:23.077Z,32.22
2023-01-04T18:30:12.117Z,27.70
2023-01-04T18:40:26.993Z,19.67
2023-01-04T19:01:34.628Z,21.80
2023-01-04T19:04:20.360Z,21.33
2023-01-04T19:06:47.140Z,19.30
2023-01-04T19:09:13.951Z,15.10
2023-01-04T19:11:40.789Z,19.08
2023-01-04T19:14:07.613Z,22.63
2023-01-04T19:16:34.386Z,21.90
2023-01-04T19:22:49.017Z,13.15
2023-01-04T19:25:15.816Z,15.30
2023-01-04T19:27:42.579Z,17.38
2023-01-04T19:30:09.791Z,16.98
2023-01-04T19:32:36.578Z,16.70
2023-01-04T19:35:03.578Z,19.65
2023-01-04T19:37:30.429Z,20.08
2023-01-04T19:39:57.256Z,20.80
2023-01-04T19:42:24.041Z,17.23
2023-01-04T19:44:50.936Z,18.67
2023-01-04T19:47:17.774Z,17.05
2023-01-04T19:49:44.617Z,21.90
2023-01-04T19:52:11.392Z,22.42
2023-01-04T19:54:38.179Z,20.17
2023-01-04T19:57:04.956Z,19.90
2023-01-04T19:59:31.935Z,20.95
2023-01-04T20:01:58.893Z,21.27
2023-01-04T20:04:27.840Z,18.08
2023-01-04T20:06:54.766Z,18.85
2023-01-04T20:09:25.854Z,17.85
2023-01-04T20:16:06.865Z,17.15
2023-01-04T20:18:34.394Z,19.10
2023-01-04T20:24:52.830Z,17.75
2023-01-04T20:27:19.753Z,16.30
2023-01-04T20:29:46.602Z,17.50
2023-01-04T20:32:13.355Z,18.80
2023-01-04T20:34:40.701Z,17.67
2023-01-04T20:37:07.473Z,18.88
2023-01-04T20:39:34.321Z,21.13
2023-01-04T20:42:19.655Z,21.30
2023-01-04T20:44:46.533Z,23.40
2023-01-04T20:47:13.378Z,22.95
2023-01-04T20:49:40.146Z,19.48
2023-01-04T20:52:06.994Z,21.63
2023-01-04T20:54:33.810Z,23.25
2023-01-04T20:57:00.674Z,19.48
2023-01-04T20:59:27.456Z,18.98
2023-01-04T21:01:54.445Z,19.23
2023-01-04T21:04:21.451Z,17.90
2023-01-04T21:06:48.243Z,21.75
2023-01-04T21:09:14.998Z,24.00
2023-01-04T21:11:41.880Z,21.70
2023-01-04T21:14:11.031Z,19.63
2023-01-04T21:16:41.322Z,23.25
2023-01-04T21:19:09.135Z,23.73
2023-01-04T21:21:35.931Z,20.83
2023-01-04T21:24:02.794Z,22.08
2023-01-04T21:26:29.695Z,23.65
2023-01-04T21:28:56.455Z,22.33
2023-01-04T21:31:25.024Z,18.10
2023-01-04T21:33:52.736Z,22.15
2023-01-04T21:36:25.449Z,22.95
2023-01-04T21:38:57.100Z,20.88
2023-01-04T21:41:25.470Z,21.40
2023-01-04T21:43:54.116Z,22.98
2023-01-04T21:46:21.559Z,21.90
2023-01-04T21:48:48.441Z,26.92
2023-01-04T21:51:15.573Z,23.52
2023-01-04T21:53:42.524Z,22.30
2023-01-04T21:56:17.963Z,21.75
2023-01-04T21:58:45.240Z,23.48
2023-01-04T22:01:17.865Z,21.75
2023-01-04T22:03:44.794Z,23.00
2023-01-04T22:06:13.981Z,24.40
2023-01-04T22:08:44.234Z,22.85
2023-01-04T22:11:11.471Z,23.85
2023-01-04T22:13:38.717Z,19.30
2023-01-04T22:16:07.837Z,27.63
2023-01-04T22:18:34.764Z,18.80
2023-01-04T22:21:08.309Z,18.67
2023-01-04T22:23:35.148Z,24.48
2023-01-04T22:26:02.107Z,22.75
2023-01-04T22:28:34.683Z,18.95
2023-01-04T22:31:05.908Z,21.10
2023-01-04T22:33:34.181Z,22.58
2023-01-04T22:36:04.850Z,26.10
2023-01-04T22:38:59.512Z,24.92
2023-01-04T22:41:28.226Z,19.27
2023-01-04T22:43:57.087Z,23.73
2023-01-04T22:46:24.692Z,19.48
2023-01-04T22:48:51.572Z,18.50
2023-01-04T22:51:19.778Z,17.13
2023-01-04T22:53:47.940Z,17.38
2023-01-04T22:56:19.324Z,19.15
2023-01-04T22:58:52.456Z,18.10
2023-01-04T23:01:24.860Z,18.67
2023-01-04T23:03:52.451Z,22.13
2023-01-04T23:06:20.032Z,23.45
2023-01-04T23:08:46.811Z,18.98
2023-01-04T23:11:18.670Z,19.65
2023-01-04T23:16:15.030Z,16.02
2023-01-04T23:18:41.936Z,19.35
2023-01-04T23:21:09.151Z,16.83
2023-01-04T23:23:36.205Z,20.58
2023-01-04T23:26:08.574Z,17.67
2023-01-04T23:28:37.218Z,18.63
2023-01-04T23:31:07.496Z,21.35
2023-01-04T23:33:36.867Z,17.83
2023-01-04T23:36:15.476Z,19.13
2023-01-04T23:38:43.338Z,20.92
2023-01-04T23:41:10.911Z,20.17
2023-01-04T23:43:38.872Z,20.48
2023-01-04T23:49:55.452Z,15.98
2023-01-04T23:56:15.944Z,20.23
